Time;durP1;ratioP1;P1;durP2;ratioP2;P2;SDS_P1;SDS_P2;PMS_P1;PMS_P2;Temp;Humidity;BMP_temperature;BMP_pressure;BME280_temperature;BME280_humidity;BME280_pressure;Samples;Min_cycle;Max_cycle;Signal;HPM_P1;HPM_P2
2024/01/01 00:01:41;;;;;;;20.33;17.60;;;;;;;19.76;51.42;100523.63;5030392;28;20049;-58
2024/01/01 00:04:09;;;;;;;18.55;15.73;;;;;;;19.75;51.50;100530.84;5025863;28;20065;-58
2024/01/01 00:06:37;;;;;;;18.10;16.00;;;;;;;19.76;51.49;100520.97;5031620;28;20054;-57
2024/01/01 00:09:04;;;;;;;17.70;15.80;;;;;;;19.76;51.50;100516.44;5031008;28;20545;-58
2024/01/01 00:11:31;;;;;;;17.30;14.57;;;;;;;19.75;51.43;100514.75;5029833;28;20041;-59
2024/01/01 00:13:59;;;;;;;18.70;16.25;;;;;;;19.75;51.43;100501.31;5029059;28;20045;-58
2024/01/01 00:16:26;;;;;;;16.88;15.00;;;;;;;19.74;51.37;100499.63;5031260;28;20046;-57
2024/01/01 00:18:54;;;;;;;17.20;15.40;;;;;;;19.74;51.21;100499.63;5031532;28;20061;-58
2024/01/01 00:21:21;;;;;;;18.05;15.45;;;;;;;19.75;51.30;100503.16;5029549;28;20037;-58
2024/01/01 00:23:48;;;;;;;17.35;14.93;;;;;;;19.76;51.20;100505.69;5026701;28;20042;-58
2024/01/01 00:26:16;;;;;;;16.92;14.48;;;;;;;19.76;51.39;100518.28;5031429;28;20431;-59
2024/01/01 00:28:43;;;;;;;16.20;14.45;;;;;;;19.78;51.31;100512.78;5029852;28;20077;-59
2024/01/01 00:31:11;;;;;;;17.23;14.27;;;;;;;19.77;51.37;100522.69;5011909;28;20045;-59
2024/01/01 00:33:38;;;;;;;16.67;14.90;;;;;;;19.78;51.42;100520.84;5025825;28;20416;-59
2024/01/01 00:36:06;;;;;;;16.10;14.15;;;;;;;19.80;51.40;100516.16;5034990;28;20049;-58
2024/01/01 00:38:33;;;;;;;16.05;13.30;;;;;;;19.80;51.39;100510.78;5029970;28;20053;-58
2024/01/01 00:41:01;;;;;;;16.05;13.30;;;;;;;19.82;51.52;100509.66;5023728;28;20046;-58
2024/01/01 00:43:28;;;;;;;16.00;13.88;;;;;;;19.82;51.50;100519.56;5032441;28;20416;-60
2024/01/01 00:45:56;;;;;;;16.48;14.50;;;;;;;19.83;51.66;100513.19;5031141;28;20045;-60
2024/01/01 00:48:24;;;;;;;15.20;13.60;;;;;;;19.83;51.70;100516.72;5030714;28;20056;-60
2024/01/01 00:50:51;;;;;;;15.23;13.63;;;;;;;19.85;51.71;100508.50;5028619;28;20052;-60
2024/01/01 00:53:19;;;;;;;14.07;12.57;;;;;;;19.86;51.54;100504.84;5026060;28;20046;-60
2024/01/01 00:55:46;;;;;;;14.88;13.23;;;;;;;19.87;51.53;100501.16;5030592;28;20049;-61
2024/01/01 00:58:14;;;;;;;13.98;12.43;;;;;;;19.88;51.29;100518.97;5025539;28;20522;-63
2024/01/01 01:00:42;;;;;;;13.80;12.15;;;;;;;19.87;51.38;100531.56;5029404;28;20042;-61
2024/01/01 01:03:10;;;;;;;13.88;12.27;;;;;;;19.88;51.42;100538.63;5025155;28;20057;-61
2024/01/01 01:05:37;;;;;;;12.43;11.07;;;;;;;19.89;51.23;100540.34;5029831;28;20053;-62
2024/01/01 01:08:05;;;;;;;14.30;11.93;;;;;;;19.89;51.28;100532.28;5034956;28;20488;-61
2024/01/01 01:10:35;;;;;;;12.48;10.90;;;;;;;19.90;51.59;100538.50;5029502;28;20421;-61
2024/01/01 01:13:04;;;;;;;12.90;11.52;;;;;;;19.91;51.39;100537.50;5024827;28;20401;-60
2024/01/01 01:15:32;;;;;;;13.80;10.82;;;;;;;19.91;51.45;100538.34;5032570;28;20052;-59
2024/01/01 01:17:59;;;;;;;12.52;11.23;;;;;;;19.93;51.64;100532.81;5024963;28;20499;-59
2024/01/01 01:20:27;;;;;;;13.43;11.13;;;;;;;19.92;51.58;100531.13;5031522;28;20056;-62
2024/01/01 01:22:54;;;;;;;12.63;10.60;;;;;;;19.93;51.78;100530.13;5027736;28;20054;-60
2024/01/01 01:25:22;;;;;;;12.63;10.60;;;;;;;19.92;51.55;100549.94;5034646;28;20475;-59
2024/01/01 01:27:49;;;;;;;11.25;10.00;;;;;;;19.94;51.71;100543.44;5030397;28;20061;-59
2024/01/01 01:30:17;;;;;;;11.38;9.57;;;;;;;19.94;51.45;100558.72;5031408;28;20045;-59
2024/01/01 01:32:44;;;;;;;13.00;9.90;;;;;;;19.93;51.51;100552.50;5024966;28;20408;-59
2024/01/01 01:35:12;;;;;;;11.35;9.65;;;;;;;19.93;51.59;100547.13;5027595;28;20042;-60
2024/01/01 01:37:39;;;;;;;11.45;9.95;;;;;;;19.95;51.55;100553.19;5027549;28;20052;-57
2024/01/01 01:40:07;;;;;;;11.30;9.68;;;;;;;19.96;51.52;100545.97;5027042;28;20522;-59
2024/01/01 01:42:35;;;;;;;10.88;9.15;;;;;;;19.97;51.48;100542.28;5024670;28;20392;-59
2024/01/01 01:45:03;;;;;;;10.10;8.98;;;;;;;19.96;51.64;100532.53;5031038;28;20049;-60
2024/01/01 01:47:32;;;;;;;12.50;9.70;;;;;;;19.96;51.72;100540.59;5021957;28;20057;-60
2024/01/01 01:49:59;;;;;;;10.25;8.57;;;;;;;19.95;51.56;100537.06;5028134;28;20053;-60
2024/01/01 01:52:27;;;;;;;10.07;8.88;;;;;;;19.95;51.77;100565.78;5026241;28;20519;-60
2024/01/01 01:54:55;;;;;;;10.48;9.40;;;;;;;19.95;51.64;100569.31;5032807;28;20411;-60
2024/01/01 01:57:23;;;;;;;9.65;8.63;;;;;;;19.94;51.74;100561.41;5027256;28;20109;-59
2024/01/01 01:59:51;;;;;;;9.77;7.82;;;;;;;19.94;51.57;100577.53;5032652;28;20065;-59
2024/01/01 02:02:22;;;;;;;9.73;8.02;;;;;;;19.93;51.56;100575.81;5028022;28;20118;-58
2024/01/01 02:04:50;;;;;;;11.48;8.60;;;;;;;19.92;51.64;100571.44;5036868;28;20048;-58
2024/01/01 02:07:20;;;;;;;10.02;8.57;;;;;;;19.91;51.59;100567.06;5033590;28;20045;-58
2024/01/01 02:09:47;;;;;;;9.45;8.45;;;;;;;19.90;51.80;100571.56;5031465;28;20391;-59
2024/01/01 02:12:15;;;;;;;10.38;8.15;;;;;;;19.90;51.55;100573.41;5035010;28;20052;-59
2024/01/01 02:14:43;;;;;;;9.38;7.88;;;;;;;19.91;51.66;100583.16;5036348;28;20052;-58
2024/01/01 02:17:10;;;;;;;9.65;8.65;;;;;;;19.91;51.59;100572.44;5033510;28;20421;-58
2024/01/01 02:19:38;;;;;;;10.02;8.05;;;;;;;19.90;51.68;100587.69;5029105;28;20061;-57
2024/01/01 02:22:05;;;;;;;10.35;8.82;;;;;;;19.89;51.63;100566.34;5028850;28;20046;-57
2024/01/01 02:24:33;;;;;;;11.73;8.50;;;;;;;19.89;51.48;100571.69;5034603;28;20061;-58
2024/01/01 02:27:00;;;;;;;10.57;8.60;;;;;;;19.87;51.71;100566.47;5033632;28;20408;-57
2024/01/01 02:29:28;;;;;;;8.55;7.65;;;;;;;19.88;51.71;100564.63;5030308;28;20058;-59
2024/01/01 02:31:55;;;;;;;13.60;8.90;;;;;;;19.88;51.67;100564.63;5030653;28;20046;-58
2024/01/01 02:34:24;;;;;;;9.20;7.35;;;;;;;19.88;51.61;100568.16;5035100;28;20060;-58
2024/01/01 02:36:53;;;;;;;8.63;7.63;;;;;;;19.88;51.61;100578.06;5033171;28;20060;-58
2024/01/01 02:39:21;;;;;;;8.30;7.18;;;;;;;19.88;51.62;100578.06;5028913;28;20424;-58
2024/01/01 02:41:48;;;;;;;8.27;7.00;;;;;;;19.87;51.51;100587.97;5031050;28;20050;-58
2024/01/01 02:44:17;;;;;;;8.80;7.90;;;;;;;19.88;51.42;100578.06;5035156;28;20049;-58
2024/01/01 02:46:44;;;;;;;8.90;7.38;;;;;;;19.87;51.61;100582.59;5031130;28;20500;-58
2024/01/01 02:49:12;;;;;;;8.75;7.57;;;;;;;19.87;51.64;100595.19;5029619;28;20046;-58
2024/01/01 02:51:43;;;;;;;8.90;7.78;;;;;;;19.86;51.54;100593.50;5029732;28;20046;-58
2024/01/01 02:54:11;;;;;;;9.85;7.35;;;;;;;19.87;51.68;100600.56;5034638;28;20080;-58
2024/01/01 02:56:39;;;;;;;8.95;8.00;;;;;;;19.86;51.59;100597.03;5030944;28;20050;-58
2024/01/01 02:59:06;;;;;;;8.93;7.38;;;;;;;19.86;51.63;100596.19;5029324;28;20053;-58
2024/01/01 03:01:33;;;;;;;7.57;6.78;;;;;;;19.84;51.58;100588.25;5030580;28;20057;-59
2024/01/01 03:04:01;;;;;;;8.57;7.32;;;;;;;19.85;51.61;100579.22;5033247;28;20057;-58
2024/01/01 03:06:28;;;;;;;7.65;6.68;;;;;;;19.85;51.50;100572.97;5032757;28;20054;-58
2024/01/01 03:08:56;;;;;;;8.32;7.45;;;;;;;19.85;51.52;100578.34;5028209;28;20046;-58
2024/01/01 03:11:23;;;;;;;8.57;7.22;;;;;;;19.84;51.57;100580.19;5030881;28;20057;-58
2024/01/01 03:13:50;;;;;;;9.10;7.22;;;;;;;19.84;51.36;100582.03;5034229;28;20402;-59
2024/01/01 03:16:19;;;;;;;7.40;6.25;;;;;;;19.83;51.34;100575.81;5032536;28;20499;-58
2024/01/01 03:18:47;;;;;;;8.50;7.38;;;;;;;19.83;51.41;100585.72;5027281;28;20057;-58
2024/01/01 03:21:15;;;;;;;8.10;6.80;;;;;;;19.82;51.47;100584.03;5030883;28;20042;-58
2024/01/01 03:23:43;;;;;;;8.50;7.43;;;;;;;19.82;51.40;100592.09;5033557;28;20037;-58
2024/01/01 03:26:11;;;;;;;6.88;5.90;;;;;;;19.82;51.38;100594.78;5030863;28;20052;-59
2024/01/01 03:28:38;;;;;;;7.65;6.82;;;;;;;19.82;51.28;100595.63;5044327;28;20054;-58
2024/01/01 03:31:06;;;;;;;7.15;6.45;;;;;;;19.81;51.45;100596.63;5030462;28;20050;-58
2024/01/01 03:33:34;;;;;;;7.90;6.82;;;;;;;19.81;51.27;100601.09;5033313;28;20049;-58
2024/01/01 03:36:02;;;;;;;8.00;7.15;;;;;;;19.81;51.41;100601.09;5030685;28;20057;-58
2024/01/01 03:38:29;;;;;;;8.25;6.90;;;;;;;19.80;51.34;100608.31;5028626;28;20049;-58
2024/01/01 03:40:56;;;;;;;7.68;6.82;;;;;;;19.81;51.40;100598.44;5032339;28;20407;-58
2024/01/01 03:43:24;;;;;;;7.95;6.55;;;;;;;19.80;51.38;100602.94;5032993;28;20048;-58
2024/01/01 03:45:51;;;;;;;7.53;6.70;;;;;;;19.80;51.28;100612.84;5031435;28;20550;-58
2024/01/01 03:48:20;;;;;;;7.05;6.22;;;;;;;19.80;51.38;100615.53;5026796;28;20061;-58
2024/01/01 03:50:47;;;;;;;8.32;7.22;;;;;;;19.79;51.36;100612.00;5031113;28;20049;-58
2024/01/01 03:53:15;;;;;;;6.65;5.95;;;;;;;19.80;51.21;100612.84;5032722;28;20048;-58
2024/01/01 03:55:42;;;;;;;7.43;6.45;;;;;;;19.79;51.27;100621.91;5031146;28;20062;-59
2024/01/01 03:58:09;;;;;;;7.93;6.43;;;;;;;19.78;51.18;100615.69;5027964;28;20496;-58
2024/01/01 04:00:37;;;;;;;6.93;6.22;;;;;;;19.79;51.36;100616.53;5031934;28;20056;-58
2024/01/01 04:03:04;;;;;;;7.22;6.35;;;;;;;19.78;51.26;100609.47;5032656;28;20041;-58
2024/01/01 04:05:32;;;;;;;8.20;6.25;;;;;;;19.76;51.21;100607.75;5031315;28;20065;-57
2024/01/01 04:07:59;;;;;;;6.85;6.15;;;;;;;19.76;51.19;100607.75;5027788;28;20408;-58
2024/01/01 04:10:27;;;;;;;8.57;6.22;;;;;;;19.76;51.10;100612.28;5031706;28;20492;-58
2024/01/01 04:12:54;;;;;;;8.10;6.95;;;;;;;19.75;51.13;100616.81;5032097;28;20050;-58
2024/01/01 04:15:22;;;;;;;7.75;6.28;;;;;;;19.75;50.95;100611.44;5030861;28;20064;-57
2024/01/01 04:17:49;;;;;;;6.75;6.05;;;;;;;19.75;51.03;100614.13;5027581;28;20049;-58
2024/01/01 04:20:16;;;;;;;7.05;6.15;;;;;;;19.76;51.03;100626.56;5030363;28;20061;-57
2024/01/01 04:22:45;;;;;;;7.95;6.47;;;;;;;19.75;51.08;100619.50;5032129;28;20045;-58
2024/01/01 04:25:13;;;;;;;7.65;6.50;;;;;;;19.76;51.19;100617.66;5030575;28;20049;-57
2024/01/01 04:27:40;;;;;;;7.20;5.85;;;;;;;19.75;51.08;100616.81;5027090;28;20057;-58
2024/01/01 04:30:08;;;;;;;6.65;5.95;;;;;;;19.76;51.09;100613.13;5031548;28;20053;-58
2024/01/01 04:32:36;;;;;;;6.75;5.53;;;;;;;19.76;50.97;100614.97;5030488;28;20049;-58
2024/01/01 04:35:03;;;;;;;7.30;5.82;;;;;;;19.77;50.96;100619.38;5030352;28;20492;-58
2024/01/01 04:37:31;;;;;;;7.13;6.40;;;;;;;19.76;50.92;100621.19;5027230;28;20037;-58
2024/01/01 04:39:58;;;;;;;6.95;6.13;;;;;;;19.75;50.87;100614.13;5031889;28;20049;-58
2024/01/01 04:42:25;;;;;;;7.57;5.97;;;;;;;19.75;51.02;100627.56;5030807;28;20042;-58
2024/01/01 04:44:53;;;;;;;6.53;5.82;;;;;;;19.77;50.95;100624.75;5030556;28;20113;-57
2024/01/01 04:47:22;;;;;;;6.85;6.00;;;;;;;19.75;50.92;100619.50;5027916;28;20050;-58
2024/01/01 04:49:50;;;;;;;6.15;5.55;;;;;;;19.76;51.00;100617.66;5031981;28;20056;-57
2024/01/01 04:52:17;;;;;;;6.63;5.93;;;;;;;19.76;51.02;100617.66;5031150;28;20049;-57
2024/01/01 04:54:45;;;;;;;7.15;6.13;;;;;;;19.76;51.08;100621.19;5029668;28;20480;-57
2024/01/01 04:57:12;;;;;;;7.78;6.25;;;;;;;19.75;51.08;100619.50;5027026;28;20504;-58
2024/01/01 04:59:39;;;;;;;6.43;5.43;;;;;;;19.76;50.93;100617.66;5032162;28;20049;-58
2024/01/01 05:02:06;;;;;;;7.47;5.80;;;;;;;19.75;50.87;100632.91;5031081;28;20041;-58
2024/01/01 05:04:34;;;;;;;6.38;5.55;;;;;;;19.75;51.05;100634.75;5029590;28;20384;-58
2024/01/01 05:07:02;;;;;;;6.47;5.57;;;;;;;19.74;51.08;100644.66;5026641;28;20412;-58
2024/01/01 05:09:29;;;;;;;6.70;5.25;;;;;;;19.74;51.02;100641.97;5031499;28;20073;-59
2024/01/01 05:11:57;;;;;;;5.80;5.10;;;;;;;19.75;50.86;100640.13;5031402;28;20045;-58
2024/01/01 05:14:24;;;;;;;6.60;5.90;;;;;;;19.74;50.94;100641.97;5029719;28;20045;-58
2024/01/01 05:16:52;;;;;;;7.88;6.22;;;;;;;19.74;50.95;100639.28;5025425;28;20412;-58
2024/01/01 05:19:19;;;;;;;7.05;5.97;;;;;;;19.73;50.88;100637.59;5031060;28;20459;-58
2024/01/01 05:21:46;;;;;;;6.50;5.55;;;;;;;19.74;50.99;100638.44;5030858;28;20396;-58
2024/01/01 05:24:13;;;;;;;6.68;5.88;;;;;;;19.73;50.89;100639.44;5029486;28;20045;-58
2024/01/01 05:26:41;;;;;;;7.00;6.18;;;;;;;19.73;50.91;100631.38;5026760;28;20519;-58
2024/01/01 05:29:08;;;;;;;7.53;6.43;;;;;;;19.73;50.98;100639.44;5030920;28;20054;-58
2024/01/01 05:31:35;;;;;;;6.53;5.90;;;;;;;19.73;50.91;100639.44;5030683;28;20050;-58
2024/01/01 05:34:03;;;;;;;7.57;5.57;;;;;;;19.73;50.88;100639.44;5029506;28;20046;-58
2024/01/01 05:36:31;;;;;;;6.40;5.43;;;;;;;19.73;50.92;100644.81;5026186;28;20416;-58
2024/01/01 05:38:58;;;;;;;7.72;5.90;;;;;;;19.70;50.85;100645.94;5029525;28;20052;-58
2024/01/01 05:41:26;;;;;;;6.80;5.72;;;;;;;19.72;50.98;100653.84;5030947;28;20064;-58
2024/01/01 05:43:54;;;;;;;5.78;5.18;;;;;;;19.72;50.71;100662.75;5029341;28;20049;-58
2024/01/01 05:46:21;;;;;;;7.07;6.25;;;;;;;19.70;50.86;100670.09;5026553;28;20046;-58
2024/01/01 05:48:49;;;;;;;6.28;5.65;;;;;;;19.70;50.82;100667.41;5030705;28;20057;-58
2024/01/01 05:51:16;;;;;;;5.75;5.15;;;;;;;19.69;50.83;100657.66;5030513;28;20042;-59
2024/01/01 05:53:44;;;;;;;6.18;5.00;;;;;;;19.70;50.96;100663.88;5028001;28;20056;-59
2024/01/01 05:56:11;;;;;;;6.10;5.10;;;;;;;19.69;50.93;100656.81;5026412;28;20064;-59
2024/01/01 05:58:39;;;;;;;6.28;5.28;;;;;;;19.70;50.99;100669.25;5033322;28;20531;-58
2024/01/01 06:01:06;;;;;;;6.40;5.20;;;;;;;19.69;50.92;100671.09;5030636;28;20050;-58
2024/01/01 06:03:33;;;;;;;7.63;5.50;;;;;;;19.69;50.75;100671.09;5029196;28;20488;-58
2024/01/01 06:06:01;;;;;;;6.78;5.32;;;;;;;19.69;50.74;100670.25;5026216;28;20053;-58
2024/01/01 06:08:28;;;;;;;5.95;5.35;;;;;;;19.70;50.72;100671.94;5030184;28;20049;-58
2024/01/01 06:10:56;;;;;;;6.65;5.28;;;;;;;19.69;50.87;100671.09;5030542;28;20049;-62
2024/01/01 06:13:24;;;;;;;6.43;5.25;;;;;;;19.73;50.71;100659.09;5028808;28;20069;-58
2024/01/01 06:15:52;;;;;;;5.65;4.97;;;;;;;19.73;50.71;100664.47;5025868;28;20045;-58
2024/01/01 06:18:22;;;;;;;6.68;5.82;;;;;;;19.73;50.84;100661.78;5030749;28;20050;-58
2024/01/01 06:20:49;;;;;;;6.53;5.20;;;;;;;19.73;50.90;100677.88;5029651;28;20045;-58
2024/01/01 06:23:17;;;;;;;5.80;5.13;;;;;;;19.73;50.80;100674.34;5028283;28;20479;-58
2024/01/01 06:25:44;;;;;;;6.00;5.05;;;;;;;19.72;50.81;100686.91;5025645;28;20080;-59
2024/01/01 06:28:12;;;;;;;6.35;5.20;;;;;;;19.71;50.80;100682.53;5030847;28;20080;-59
2024/01/01 06:30:39;;;;;;;6.47;4.97;;;;;;;19.73;50.64;100679.72;5029707;28;20041;-59
2024/01/01 06:33:06;;;;;;;7.00;5.45;;;;;;;19.72;50.68;100680.69;5026964;28;20055;-59
2024/01/01 06:35:34;;;;;;;6.55;5.50;;;;;;;19.73;50.85;100682.41;5025962;28;20057;-59
2024/01/01 06:38:02;;;;;;;6.15;5.03;;;;;;;19.72;50.48;100684.22;5014040;28;20054;-57
2024/01/01 06:40:30;;;;;;;6.57;5.43;;;;;;;19.72;50.67;100686.91;5029959;28;20061;-57
2024/01/01 06:42:58;;;;;;;7.05;5.20;;;;;;;19.72;50.80;100691.44;5029013;28;20415;-59
2024/01/01 06:45:25;;;;;;;5.85;5.20;;;;;;;19.71;50.88;100692.44;5029310;28;20510;-59
2024/01/01 06:47:53;;;;;;;5.82;4.90;;;;;;;19.72;50.88;100702.19;5036076;28;20063;-59
2024/01/01 06:50:22;;;;;;;6.28;5.20;;;;;;;19.71;50.69;100695.13;5033031;28;20050;-57
2024/01/01 06:52:50;;;;;;;5.63;4.63;;;;;;;19.72;50.85;100697.66;5031354;28;20054;-60
2024/01/01 06:55:17;;;;;;;6.53;4.80;;;;;;;19.73;50.80;100709.28;5028991;28;20046;-61
2024/01/01 06:57:45;;;;;;;8.27;5.43;;;;;;;19.73;50.63;100704.75;5035293;28;20053;-59
2024/01/01 07:00:13;;;;;;;6.07;5.13;;;;;;;19.71;50.69;100714.75;5026168;28;20045;-59
2024/01/01 07:02:41;;;;;;;5.55;4.60;;;;;;;19.72;50.63;100721.81;5031121;28;20392;-59
2024/01/01 07:05:08;;;;;;;6.05;5.05;;;;;;;19.72;50.58;100720.97;5028611;28;20038;-59
2024/01/01 07:07:36;;;;;;;7.10;5.25;;;;;;;19.71;50.72;100716.59;5035649;28;20049;-59
2024/01/01 07:10:04;;;;;;;5.55;4.57;;;;;;;19.71;50.61;100713.91;5026504;28;20045;-58
2024/01/01 07:12:31;;;;;;;7.20;5.25;;;;;;;19.68;50.61;100717.72;5024620;28;20523;-59
2024/01/01 07:15:00;;;;;;;5.40;4.72;;;;;;;19.69;50.77;100729.34;5028987;28;20480;-59
2024/01/01 07:17:28;;;;;;;5.90;5.00;;;;;;;19.69;50.67;100729.34;5035719;28;20388;-59
2024/01/01 07:19:55;;;;;;;5.45;4.55;;;;;;;19.68;50.57;100744.56;5032224;28;20495;-60
2024/01/01 07:22:23;;;;;;;5.80;4.60;;;;;;;19.66;50.76;100738.50;5030419;28;20046;-59
2024/01/01 07:24:50;;;;;;;6.65;4.50;;;;;;;19.66;50.58;100737.66;5028635;28;20046;-59
2024/01/01 07:27:17;;;;;;;5.65;4.75;;;;;;;19.67;50.66;100734.81;5035578;28;20049;-58
2024/01/01 07:29:45;;;;;;;6.65;5.00;;;;;;;19.67;50.57;100736.66;5032278;28;20192;-57
2024/01/01 07:32:13;;;;;;;5.93;5.07;;;;;;;19.66;50.66;100738.50;5030234;28;20499;-57
2024/01/01 07:34:40;;;;;;;4.65;4.15;;;;;;;19.65;50.46;100739.50;5028777;28;20038;-59
2024/01/01 07:37:08;;;;;;;5.25;4.72;;;;;;;19.66;50.38;100741.19;5035663;28;20048;-59
2024/01/01 07:39:35;;;;;;;5.03;4.30;;;;;;;19.65;50.50;100739.50;5031847;28;20045;-58
2024/01/01 07:42:03;;;;;;;5.55;4.75;;;;;;;19.65;50.56;100755.63;5029993;28;20046;-58
2024/01/01 07:44:30;;;;;;;6.15;5.10;;;;;;;19.65;50.36;100752.09;5028285;28;20047;-59
2024/01/01 07:46:59;;;;;;;5.93;4.80;;;;;;;19.65;50.46;100749.41;5035174;28;20041;-58
2024/01/01 07:49:26;;;;;;;5.60;4.75;;;;;;;19.65;50.44;100760.97;5032086;28;20056;-58
2024/01/01 07:51:54;;;;;;;5.78;4.55;;;;;;;19.64;50.36;100753.88;5029768;28;20048;-58
2024/01/01 07:54:21;;;;;;;4.78;4.13;;;;;;;19.63;50.31;100757.56;5028087;28;20392;-58
2024/01/01 07:56:49;;;;;;;4.40;3.60;;;;;;;19.63;50.33;100754.03;5033817;28;20055;-58
2024/01/01 07:59:17;;;;;;;5.43;4.70;;;;;;;19.63;50.42;100765.63;5031811;28;20049;-59
2024/01/01 08:01:44;;;;;;;5.63;4.28;;;;;;;19.62;50.36;100766.63;5029459;28;20045;-59
2024/01/01 08:04:12;;;;;;;5.78;4.90;;;;;;;19.64;50.28;100783.44;5027806;28;20042;-60
2024/01/01 08:06:39;;;;;;;5.00;4.18;;;;;;;19.62;50.28;100780.03;5034822;28;20060;-59
2024/01/01 08:09:06;;;;;;;4.80;4.15;;;;;;;19.64;50.39;100780.75;5031443;28;20060;-60
2024/01/01 08:11:34;;;;;;;5.10;3.95;;;;;;;19.64;50.33;100780.75;5029508;28;20365;-60
2024/01/01 08:14:01;;;;;;;5.03;3.90;;;;;;;19.65;50.11;100776.25;5026421;28;20056;-59
2024/01/01 08:16:34;;;;;;;5.22;4.55;;;;;;;19.63;50.32;100779.06;5035102;28;20052;-58
2024/01/01 08:19:01;;;;;;;4.38;3.92;;;;;;;19.64;50.04;100786.13;5031343;28;20116;-58
2024/01/01 08:21:29;;;;;;;6.05;4.18;;;;;;;19.63;50.08;100787.09;5028503;28;20056;-58
2024/01/01 08:23:56;;;;;;;4.13;3.63;;;;;;;19.64;50.03;100786.13;5027821;28;20060;-58
2024/01/01 08:26:24;;;;;;;5.30;4.32;;;;;;;19.64;50.16;100796.84;5033387;28;20057;-59
2024/01/01 08:28:51;;;;;;;5.38;4.53;;;;;;;19.63;50.04;100800.53;5025988;28;20049;-58
2024/01/01 08:31:20;;;;;;;4.97;4.15;;;;;;;19.64;50.20;100810.28;5030255;28;20049;-58
2024/01/01 08:33:48;;;;;;;5.18;4.22;;;;;;;19.63;50.05;100805.91;5031267;28;20046;-58
2024/01/01 08:36:19;;;;;;;5.60;4.10;;;;;;;19.64;50.17;100812.97;5032950;28;20048;-59
2024/01/01 08:38:47;;;;;;;4.75;4.05;;;;;;;19.65;50.15;100819.22;5030741;28;20049;-58
2024/01/01 08:41:14;;;;;;;5.07;4.38;;;;;;;19.64;50.09;100822.88;5027441;28;20057;-58
2024/01/01 08:43:56;;;;;;;5.07;4.47;;;;;;;19.64;49.97;100822.88;5030366;28;20049;-58
2024/01/01 08:46:25;;;;;;;5.13;3.83;;;;;;;19.64;50.19;100825.56;5024599;28;20049;-59
2024/01/01 08:48:52;;;;;;;4.47;3.80;;;;;;;19.64;49.97;100828.25;5029029;28;20045;-60
2024/01/01 08:51:20;;;;;;;5.28;4.18;;;;;;;19.63;50.10;100822.03;5026834;28;20041;-60
2024/01/01 08:53:47;;;;;;;4.82;3.67;;;;;;;19.63;50.06;100834.59;5033350;28;20509;-59
2024/01/01 08:56:15;;;;;;;4.88;3.92;;;;;;;19.64;50.20;100839.81;5036810;28;20403;-58
2024/01/01 08:58:43;;;;;;;5.55;4.03;;;;;;;19.64;50.06;100849.72;5027538;28;20049;-58
2024/01/01 09:01:10;;;;;;;5.13;3.88;;;;;;;19.63;50.14;100853.41;5026876;28;20401;-58
2024/01/01 09:03:38;;;;;;;4.35;3.58;;;;;;;19.63;50.19;100848.03;5033083;28;20056;-58
2024/01/01 09:06:06;;;;;;;4.70;3.90;;;;;;;19.63;50.20;100845.34;5022522;28;20045;-58
2024/01/01 09:08:33;;;;;;;5.55;4.15;;;;;;;19.62;49.97;100847.19;5028980;28;20056;-58
2024/01/01 09:11:02;;;;;;;4.72;3.88;;;;;;;19.62;50.25;100857.94;5026689;28;20050;-59
2024/01/01 09:13:30;;;;;;;4.63;3.53;;;;;;;19.63;50.29;100850.72;5033399;28;20045;-59
2024/01/01 09:15:57;;;;;;;5.20;3.83;;;;;;;19.62;50.15;100863.28;5030467;28;20045;-58
2024/01/01 09:18:25;;;;;;;4.32;3.40;;;;;;;19.62;50.18;100871.34;5028130;28;20046;-58
2024/01/01 09:20:52;;;;;;;4.18;3.58;;;;;;;19.63;50.36;100873.06;5026477;28;20046;-59
2024/01/01 09:23:26;;;;;;;4.70;3.58;;;;;;;19.63;50.37;100869.53;5033682;28;20065;-59
2024/01/01 09:25:54;;;;;;;4.85;4.25;;;;;;;19.63;50.26;100873.06;5030089;28;20057;-59
2024/01/01 09:28:22;;;;;;;4.55;3.47;;;;;;;19.63;50.28;100873.06;5026916;28;20062;-60
2024/01/01 09:30:49;;;;;;;4.78;3.85;;;;;;;19.64;50.30;100871.22;5026418;28;20057;-60
2024/01/01 09:33:17;;;;;;;5.03;3.80;;;;;;;19.63;50.13;100878.41;5032704;28;20049;-60
2024/01/01 09:35:46;;;;;;;5.22;3.85;;;;;;;19.64;50.42;100871.22;5030031;28;20046;-59
2024/01/01 09:38:14;;;;;;;4.90;4.13;;;;;;;19.64;50.21;100865.84;5028193;28;20050;-58
2024/01/01 09:40:44;;;;;;;5.45;3.88;;;;;;;19.65;50.18;100870.25;5033935;28;20519;-58
2024/01/01 09:43:16;;;;;;;5.50;3.97;;;;;;;19.62;50.15;100868.66;5038923;28;20045;-58
2024/01/01 09:45:47;;;;;;;5.93;3.67;;;;;;;19.65;50.24;100867.56;5029372;28;20416;-58
2024/01/01 09:48:16;;;;;;;4.80;3.80;;;;;;;19.66;50.35;100874.63;5025595;28;20049;-58
2024/01/01 09:50:43;;;;;;;5.65;3.80;;;;;;;19.68;50.37;100867.28;5031448;28;20041;-58
2024/01/01 09:53:11;;;;;;;5.03;3.83;;;;;;;19.69;50.23;100869.00;5044620;28;20415;-59
2024/01/01 09:55:38;;;;;;;4.72;3.30;;;;;;;19.70;50.28;100866.16;5040578;28;20045;-60
2024/01/01 09:58:06;;;;;;;4.82;3.47;;;;;;;19.72;50.42;100860.66;5038375;28;20052;-60
2024/01/01 10:00:34;;;;;;;5.20;3.83;;;;;;;19.71;50.15;100850.91;5041835;28;20040;-60
2024/01/01 10:03:10;;;;;;;4.68;3.35;;;;;;;19.71;50.09;100853.59;5038735;28;20056;-59
2024/01/01 10:05:39;;;;;;;5.43;3.88;;;;;;;19.73;50.07;100849.78;5035004;28;20042;-59
2024/01/01 10:08:14;;;;;;;5.25;3.97;;;;;;;19.72;50.00;100848.06;5039810;28;20045;-59
2024/01/01 10:10:43;;;;;;;5.80;3.55;;;;;;;19.71;50.30;100843.69;5038304;28;20052;-59
2024/01/01 10:13:13;;;;;;;5.80;3.47;;;;;;;19.74;50.18;100856.00;5033936;28;20050;-59
2024/01/01 10:15:41;;;;;;;4.55;3.67;;;;;;;19.74;49.92;100850.63;5033000;28;20052;-58
2024/01/01 10:18:12;;;;;;;5.05;4.20;;;;;;;19.74;50.14;100843.44;5038369;28;20096;-58
2024/01/01 10:20:44;;;;;;;4.10;3.20;;;;;;;19.74;50.21;100843.44;5038139;28;20041;-57
2024/01/01 10:23:21;;;;;;;4.97;3.67;;;;;;;19.76;50.18;100844.13;5033189;28;20050;-58
2024/01/01 10:26:01;;;;;;;4.28;3.55;;;;;;;19.78;50.59;100851.22;5035637;28;20373;-58
2024/01/01 10:28:30;;;;;;;4.72;3.45;;;;;;;19.79;50.45;100852.91;5037260;28;20064;-58
2024/01/01 10:31:01;;;;;;;6.38;4.07;;;;;;;19.79;50.48;100855.59;5031809;28;20049;-58
2024/01/01 10:33:31;;;;;;;4.97;3.78;;;;;;;19.80;50.46;100854.63;5031729;28;20045;-58
2024/01/01 10:36:01;;;;;;;4.55;3.35;;;;;;;19.80;50.59;100860.00;5034374;28;20052;-56
2024/01/01 10:38:31;;;;;;;4.40;3.35;;;;;;;19.78;50.57;100854.75;5031644;28;20052;-57
2024/01/01 10:40:59;;;;;;;5.00;3.83;;;;;;;19.79;50.15;100858.28;5027723;28;20114;-58
2024/01/01 10:43:29;;;;;;;4.45;3.65;;;;;;;19.76;50.01;100860.25;5026270;28;20045;-58
2024/01/01 10:46:01;;;;;;;5.72;4.10;;;;;;;19.76;49.48;100859.41;5037566;28;20045;-57
2024/01/01 10:48:33;;;;;;;6.40;4.37;;;;;;;19.74;49.61;100862.22;5036186;28;20056;-59
2024/01/01 10:51:12;;;;;;;5.32;4.00;;;;;;;19.75;49.75;100863.94;5022044;28;20046;-59
2024/01/01 10:54:11;;;;;;;6.28;4.60;;;;;;;19.74;49.62;100867.59;5035189;28;20072;-59
2024/01/01 10:56:53;;;;;;;6.50;5.07;;;;;;;19.73;49.18;100868.59;5038394;28;20045;-58
2024/01/01 10:59:31;;;;;;;5.53;4.32;;;;;;;19.75;49.47;100863.06;5032150;28;20412;-58
2024/01/01 11:02:01;;;;;;;4.68;3.65;;;;;;;19.75;49.42;100865.75;5036665;28;20041;-62
2024/01/01 11:04:29;;;;;;;4.47;3.65;;;;;;;19.74;49.43;100859.53;5031741;28;20046;-59
2024/01/01 11:06:56;;;;;;;5.88;4.03;;;;;;;19.75;49.44;100853.19;5030714;28;20053;-59
2024/01/01 11:09:25;;;;;;;5.55;3.88;;;;;;;19.74;49.37;100854.16;5033698;28;20054;-59
2024/01/01 11:11:55;;;;;;;5.07;4.30;;;;;;;19.74;49.51;100851.50;5035661;28;20510;-59
2024/01/01 11:14:28;;;;;;;6.65;4.00;;;;;;;19.73;49.34;100849.78;5029723;28;20041;-59
2024/01/01 11:16:57;;;;;;;6.07;4.68;;;;;;;19.74;48.96;100845.28;5029053;28;20388;-60
2024/01/01 11:19:38;;;;;;;6.03;4.68;;;;;;;19.74;48.64;100842.59;5031131;28;20053;-60
2024/01/01 11:22:30;;;;;;;5.70;4.60;;;;;;;19.74;48.88;100842.59;5027576;28;20499;-59
2024/01/01 11:24:59;;;;;;;6.10;4.63;;;;;;;19.75;48.67;100838.91;5029246;28;20054;-60
2024/01/01 11:27:32;;;;;;;4.88;3.72;;;;;;;19.74;48.92;100839.91;5039836;28;20152;-60